sensor_id;sensor_type;location;lat;lon;timestamp;P1;durP1;ratioP1;P2;durP2;ratioP2
11439;SDS011;5776;51.814;4.510;2023-04-03T00:01:32;2.50;;;1.10;;
11439;SDS011;5776;51.814;4.510;2023-04-03T00:03:58;2.13;;;1.20;;
11439;SDS011;5776;51.814;4.510;2023-04-03T00:06:25;1.70;;;1.00;;
11439;SDS011;5776;51.814;4.510;2023-04-03T00:08:52;2.23;;;0.93;;
11439;SDS011;5776;51.814;4.510;2023-04-03T00:11:18;3.00;;;0.87;;
11439;SDS011;5776;51.814;4.510;2023-04-03T00:13:45;1.73;;;1.00;;
11439;SDS011;5776;51.814;4.510;2023-04-03T00:16:11;1.67;;;1.00;;
11439;SDS011;5776;51.814;4.510;2023-04-03T00:18:38;0.90;;;0.80;;
11439;SDS011;5776;51.814;4.510;2023-04-03T00:21:05;4.70;;;1.40;;
11439;SDS011;5776;51.814;4.510;2023-04-03T00:23:32;1.10;;;0.90;;
11439;SDS011;5776;51.814;4.510;2023-04-03T00:25:58;1.83;;;0.90;;
11439;SDS011;5776;51.814;4.510;2023-04-03T00:28:24;2.13;;;0.90;;
11439;SDS011;5776;51.814;4.510;2023-04-03T00:30:51;2.13;;;1.20;;
11439;SDS011;5776;51.814;4.510;2023-04-03T00:33:17;1.27;;;0.80;;
11439;SDS011;5776;51.814;4.510;2023-04-03T00:35:43;3.20;;;1.17;;
11439;SDS011;5776;51.814;4.510;2023-04-03T00:38:09;3.93;;;1.13;;
11439;SDS011;5776;51.814;4.510;2023-04-03T00:40:36;2.03;;;1.03;;
11439;SDS011;5776;51.814;4.510;2023-04-03T00:43:14;5.83;;;1.20;;
11439;SDS011;5776;51.814;4.510;2023-04-03T00:45:44;1.70;;;1.00;;
11439;SDS011;5776;51.814;4.510;2023-04-03T00:48:21;3.90;;;1.20;;
11439;SDS011;5776;51.814;4.510;2023-04-03T00:50:48;1.43;;;0.80;;
11439;SDS011;5776;51.814;4.510;2023-04-03T00:53:16;1.70;;;1.00;;
11439;SDS011;5776;51.814;4.510;2023-04-03T00:55:48;2.10;;;1.13;;
11439;SDS011;5776;51.814;4.510;2023-04-03T00:58:17;3.30;;;1.00;;
11439;SDS011;5776;51.814;4.510;2023-04-03T01:00:46;2.30;;;0.80;;
11439;SDS011;5776;51.814;4.510;2023-04-03T01:03:21;2.70;;;1.10;;
11439;SDS011;5776;51.814;4.510;2023-04-03T01:05:47;2.23;;;0.90;;
11439;SDS011;5776;51.814;4.510;2023-04-03T01:08:13;1.97;;;1.10;;
11439;SDS011;5776;51.814;4.510;2023-04-03T01:10:39;2.77;;;1.03;;
11439;SDS011;5776;51.814;4.510;2023-04-03T01:16:04;1.37;;;0.80;;
11439;SDS011;5776;51.814;4.510;2023-04-03T01:18:31;1.40;;;0.80;;
11439;SDS011;5776;51.814;4.510;2023-04-03T01:21:05;1.97;;;0.97;;
11439;SDS011;5776;51.814;4.510;2023-04-03T01:24:35;1.87;;;0.90;;
11439;SDS011;5776;51.814;4.510;2023-04-03T01:26:41;2.57;;;1.23;;
11439;SDS011;5776;51.814;4.510;2023-04-03T01:29:07;3.23;;;1.10;;
11439;SDS011;5776;51.814;4.510;2023-04-03T01:34:11;1.53;;;0.90;;
11439;SDS011;5776;51.814;4.510;2023-04-03T01:36:37;2.73;;;1.07;;
11439;SDS011;5776;51.814;4.510;2023-04-03T01:39:03;1.53;;;0.87;;
11439;SDS011;5776;51.814;4.510;2023-04-03T01:41:29;3.40;;;0.90;;
11439;SDS011;5776;51.814;4.510;2023-04-03T01:43:55;2.33;;;1.07;;
11439;SDS011;5776;51.814;4.510;2023-04-03T01:46:21;3.50;;;1.40;;
11439;SDS011;5776;51.814;4.510;2023-04-03T01:48:47;1.20;;;0.80;;
11439;SDS011;5776;51.814;4.510;2023-04-03T01:51:14;2.97;;;1.20;;
11439;SDS011;5776;51.814;4.510;2023-04-03T01:53:40;1.77;;;1.00;;
11439;SDS011;5776;51.814;4.510;2023-04-03T01:56:06;1.87;;;1.00;;
11439;SDS011;5776;51.814;4.510;2023-04-03T01:58:33;2.43;;;1.10;;
11439;SDS011;5776;51.814;4.510;2023-04-03T02:00:59;2.10;;;1.20;;
11439;SDS011;5776;51.814;4.510;2023-04-03T02:03:25;1.83;;;0.97;;
11439;SDS011;5776;51.814;4.510;2023-04-03T02:05:51;1.27;;;0.83;;
11439;SDS011;5776;51.814;4.510;2023-04-03T02:08:16;1.73;;;0.80;;
11439;SDS011;5776;51.814;4.510;2023-04-03T02:10:48;3.73;;;1.27;;
11439;SDS011;5776;51.814;4.510;2023-04-03T02:13:16;2.43;;;1.00;;
11439;SDS011;5776;51.814;4.510;2023-04-03T02:15:43;1.57;;;1.00;;
11439;SDS011;5776;51.814;4.510;2023-04-03T02:18:08;1.50;;;0.97;;
11439;SDS011;5776;51.814;4.510;2023-04-03T02:20:35;1.87;;;1.03;;
11439;SDS011;5776;51.814;4.510;2023-04-03T02:23:01;2.03;;;1.13;;
11439;SDS011;5776;51.814;4.510;2023-04-03T02:25:27;2.03;;;1.30;;
11439;SDS011;5776;51.814;4.510;2023-04-03T02:27:53;1.90;;;1.17;;
11439;SDS011;5776;51.814;4.510;2023-04-03T02:30:18;3.53;;;1.10;;
11439;SDS011;5776;51.814;4.510;2023-04-03T02:32:45;4.57;;;1.30;;
11439;SDS011;5776;51.814;4.510;2023-04-03T02:35:11;3.57;;;1.40;;
11439;SDS011;5776;51.814;4.510;2023-04-03T02:37:37;1.77;;;1.20;;
11439;SDS011;5776;51.814;4.510;2023-04-03T02:40:04;3.47;;;1.10;;
11439;SDS011;5776;51.814;4.510;2023-04-03T02:42:30;2.60;;;1.03;;
11439;SDS011;5776;51.814;4.510;2023-04-03T02:44:57;1.87;;;1.10;;
11439;SDS011;5776;51.814;4.510;2023-04-03T02:47:22;2.00;;;1.00;;
11439;SDS011;5776;51.814;4.510;2023-04-03T02:49:48;1.70;;;1.13;;
11439;SDS011;5776;51.814;4.510;2023-04-03T02:52:14;2.53;;;1.00;;
11439;SDS011;5776;51.814;4.510;2023-04-03T02:54:40;1.50;;;1.00;;
11439;SDS011;5776;51.814;4.510;2023-04-03T02:57:06;3.17;;;1.30;;
11439;SDS011;5776;51.814;4.510;2023-04-03T02:59:35;2.50;;;1.20;;
11439;SDS011;5776;51.814;4.510;2023-04-03T03:02:02;4.63;;;1.13;;
11439;SDS011;5776;51.814;4.510;2023-04-03T03:04:28;2.23;;;1.00;;
11439;SDS011;5776;51.814;4.510;2023-04-03T03:06:53;2.27;;;1.23;;
11439;SDS011;5776;51.814;4.510;2023-04-03T03:09:19;2.27;;;1.07;;
11439;SDS011;5776;51.814;4.510;2023-04-03T03:11:46;3.80;;;1.23;;
11439;SDS011;5776;51.814;4.510;2023-04-03T03:14:12;1.70;;;1.00;;
11439;SDS011;5776;51.814;4.510;2023-04-03T03:16:37;2.30;;;1.37;;
11439;SDS011;5776;51.814;4.510;2023-04-03T03:19:03;2.33;;;1.20;;
11439;SDS011;5776;51.814;4.510;2023-04-03T03:21:29;1.77;;;1.10;;
11439;SDS011;5776;51.814;4.510;2023-04-03T03:23:55;1.93;;;1.20;;
11439;SDS011;5776;51.814;4.510;2023-04-03T03:26:21;1.70;;;1.10;;
11439;SDS011;5776;51.814;4.510;2023-04-03T03:28:47;2.50;;;1.20;;
11439;SDS011;5776;51.814;4.510;2023-04-03T03:31:13;4.70;;;1.43;;
11439;SDS011;5776;51.814;4.510;2023-04-03T03:33:39;3.57;;;1.13;;
11439;SDS011;5776;51.814;4.510;2023-04-03T03:36:05;3.03;;;1.40;;
11439;SDS011;5776;51.814;4.510;2023-04-03T03:38:31;2.50;;;1.10;;
11439;SDS011;5776;51.814;4.510;2023-04-03T03:40:57;3.77;;;1.43;;
11439;SDS011;5776;51.814;4.510;2023-04-03T03:43:23;2.80;;;1.30;;
11439;SDS011;5776;51.814;4.510;2023-04-03T03:45:52;2.17;;;1.13;;
11439;SDS011;5776;51.814;4.510;2023-04-03T03:48:18;2.60;;;1.27;;
11439;SDS011;5776;51.814;4.510;2023-04-03T03:50:45;2.53;;;1.30;;
11439;SDS011;5776;51.814;4.510;2023-04-03T03:53:12;3.00;;;1.50;;
11439;SDS011;5776;51.814;4.510;2023-04-03T03:55:38;1.43;;;1.33;;
11439;SDS011;5776;51.814;4.510;2023-04-03T03:58:04;3.57;;;1.40;;
11439;SDS011;5776;51.814;4.510;2023-04-03T04:00:30;3.40;;;1.40;;
11439;SDS011;5776;51.814;4.510;2023-04-03T04:02:56;2.77;;;1.37;;
11439;SDS011;5776;51.814;4.510;2023-04-03T04:05:22;1.67;;;1.20;;
11439;SDS011;5776;51.814;4.510;2023-04-03T04:07:48;3.77;;;1.30;;
11439;SDS011;5776;51.814;4.510;2023-04-03T04:10:14;2.03;;;1.33;;
11439;SDS011;5776;51.814;4.510;2023-04-03T04:12:40;2.17;;;1.40;;
11439;SDS011;5776;51.814;4.510;2023-04-03T04:15:06;4.23;;;1.57;;
11439;SDS011;5776;51.814;4.510;2023-04-03T04:17:32;1.93;;;1.40;;
11439;SDS011;5776;51.814;4.510;2023-04-03T04:19:58;2.13;;;1.40;;
11439;SDS011;5776;51.814;4.510;2023-04-03T04:22:24;2.47;;;1.37;;
11439;SDS011;5776;51.814;4.510;2023-04-03T04:24:50;2.80;;;1.20;;
11439;SDS011;5776;51.814;4.510;2023-04-03T04:27:15;3.93;;;1.33;;
11439;SDS011;5776;51.814;4.510;2023-04-03T04:29:41;2.13;;;1.23;;
11439;SDS011;5776;51.814;4.510;2023-04-03T04:32:07;1.90;;;1.23;;
11439;SDS011;5776;51.814;4.510;2023-04-03T04:34:34;1.90;;;1.27;;
11439;SDS011;5776;51.814;4.510;2023-04-03T04:37:00;6.47;;;1.47;;
11439;SDS011;5776;51.814;4.510;2023-04-03T04:39:26;4.83;;;1.60;;
11439;SDS011;5776;51.814;4.510;2023-04-03T04:41:52;1.83;;;1.40;;
11439;SDS011;5776;51.814;4.510;2023-04-03T04:44:18;2.87;;;1.60;;
11439;SDS011;5776;51.814;4.510;2023-04-03T04:46:44;2.23;;;1.43;;
11439;SDS011;5776;51.814;4.510;2023-04-03T04:49:10;2.63;;;1.60;;
11439;SDS011;5776;51.814;4.510;2023-04-03T04:51:36;2.00;;;1.20;;
11439;SDS011;5776;51.814;4.510;2023-04-03T04:54:02;4.03;;;1.40;;
11439;SDS011;5776;51.814;4.510;2023-04-03T04:56:28;2.97;;;1.57;;
11439;SDS011;5776;51.814;4.510;2023-04-03T04:58:53;3.97;;;1.60;;
11439;SDS011;5776;51.814;4.510;2023-04-03T05:01:19;2.73;;;1.40;;
11439;SDS011;5776;51.814;4.510;2023-04-03T05:03:46;2.27;;;1.50;;
11439;SDS011;5776;51.814;4.510;2023-04-03T05:06:12;4.00;;;1.63;;
11439;SDS011;5776;51.814;4.510;2023-04-03T05:08:38;2.90;;;1.60;;
11439;SDS011;5776;51.814;4.510;2023-04-03T05:11:04;1.97;;;1.13;;
11439;SDS011;5776;51.814;4.510;2023-04-03T05:13:31;3.33;;;1.50;;
11439;SDS011;5776;51.814;4.510;2023-04-03T05:15:56;6.00;;;2.40;;
11439;SDS011;5776;51.814;4.510;2023-04-03T05:18:22;3.70;;;1.27;;
11439;SDS011;5776;51.814;4.510;2023-04-03T05:20:49;1.67;;;1.20;;
11439;SDS011;5776;51.814;4.510;2023-04-03T05:23:15;2.33;;;1.50;;
11439;SDS011;5776;51.814;4.510;2023-04-03T05:25:41;2.40;;;1.70;;
11439;SDS011;5776;51.814;4.510;2023-04-03T05:28:09;1.60;;;1.40;;
11439;SDS011;5776;51.814;4.510;2023-04-03T05:30:35;3.43;;;1.50;;
11439;SDS011;5776;51.814;4.510;2023-04-03T05:33:01;2.00;;;1.37;;
11439;SDS011;5776;51.814;4.510;2023-04-03T05:35:27;4.23;;;1.80;;
11439;SDS011;5776;51.814;4.510;2023-04-03T05:37:53;4.53;;;1.50;;
11439;SDS011;5776;51.814;4.510;2023-04-03T05:40:20;3.33;;;1.70;;
11439;SDS011;5776;51.814;4.510;2023-04-03T05:42:46;3.60;;;1.70;;
11439;SDS011;5776;51.814;4.510;2023-04-03T05:45:11;2.13;;;1.50;;
11439;SDS011;5776;51.814;4.510;2023-04-03T05:47:37;3.67;;;1.87;;
11439;SDS011;5776;51.814;4.510;2023-04-03T05:50:03;3.10;;;1.63;;
11439;SDS011;5776;51.814;4.510;2023-04-03T05:52:31;3.00;;;1.80;;
11439;SDS011;5776;51.814;4.510;2023-04-03T05:55:00;3.20;;;1.30;;
11439;SDS011;5776;51.814;4.510;2023-04-03T05:57:26;3.30;;;1.70;;
11439;SDS011;5776;51.814;4.510;2023-04-03T05:59:52;3.33;;;1.17;;
11439;SDS011;5776;51.814;4.510;2023-04-03T06:02:19;2.63;;;1.27;;
11439;SDS011;5776;51.814;4.510;2023-04-03T06:04:47;5.83;;;1.60;;
11439;SDS011;5776;51.814;4.510;2023-04-03T06:07:14;4.43;;;1.30;;
11439;SDS011;5776;51.814;4.510;2023-04-03T06:09:42;2.40;;;1.20;;
11439;SDS011;5776;51.814;4.510;2023-04-03T06:12:09;4.63;;;1.80;;
11439;SDS011;5776;51.814;4.510;2023-04-03T06:14:35;3.67;;;1.40;;
11439;SDS011;5776;51.814;4.510;2023-04-03T06:17:01;2.10;;;1.40;;
11439;SDS011;5776;51.814;4.510;2023-04-03T06:19:27;2.67;;;1.57;;
11439;SDS011;5776;51.814;4.510;2023-04-03T06:21:54;5.33;;;1.60;;
11439;SDS011;5776;51.814;4.510;2023-04-03T06:24:20;5.03;;;1.50;;
11439;SDS011;5776;51.814;4.510;2023-04-03T06:26:48;7.40;;;2.03;;
11439;SDS011;5776;51.814;4.510;2023-04-03T06:29:15;3.43;;;1.33;;
11439;SDS011;5776;51.814;4.510;2023-04-03T06:31:41;2.77;;;1.53;;
11439;SDS011;5776;51.814;4.510;2023-04-03T06:34:07;3.93;;;1.50;;
11439;SDS011;5776;51.814;4.510;2023-04-03T06:36:34;4.53;;;1.50;;
11439;SDS011;5776;51.814;4.510;2023-04-03T06:39:00;3.43;;;1.40;;
11439;SDS011;5776;51.814;4.510;2023-04-03T06:41:28;2.47;;;1.70;;
11439;SDS011;5776;51.814;4.510;2023-04-03T06:43:54;3.87;;;1.50;;
11439;SDS011;5776;51.814;4.510;2023-04-03T06:46:22;5.40;;;1.73;;
11439;SDS011;5776;51.814;4.510;2023-04-03T06:48:48;3.17;;;1.40;;
11439;SDS011;5776;51.814;4.510;2023-04-03T06:51:19;3.33;;;1.30;;
11439;SDS011;5776;51.814;4.510;2023-04-03T06:53:47;7.03;;;1.80;;
11439;SDS011;5776;51.814;4.510;2023-04-03T06:56:14;6.07;;;1.80;;
11439;SDS011;5776;51.814;4.510;2023-04-03T06:58:40;1.87;;;1.20;;
11439;SDS011;5776;51.814;4.510;2023-04-03T07:01:07;2.77;;;1.50;;
11439;SDS011;5776;51.814;4.510;2023-04-03T07:03:35;2.67;;;1.43;;
11439;SDS011;5776;51.814;4.510;2023-04-03T07:06:01;5.27;;;1.83;;
11439;SDS011;5776;51.814;4.510;2023-04-03T07:08:27;3.27;;;1.60;;
11439;SDS011;5776;51.814;4.510;2023-04-03T07:10:53;3.73;;;1.93;;
11439;SDS011;5776;51.814;4.510;2023-04-03T07:13:20;4.17;;;1.77;;
11439;SDS011;5776;51.814;4.510;2023-04-03T07:15:46;3.93;;;1.40;;
11439;SDS011;5776;51.814;4.510;2023-04-03T07:18:12;4.07;;;1.60;;
11439;SDS011;5776;51.814;4.510;2023-04-03T07:20:38;3.17;;;1.83;;
11439;SDS011;5776;51.814;4.510;2023-04-03T07:23:04;5.63;;;1.83;;
11439;SDS011;5776;51.814;4.510;2023-04-03T07:25:30;2.80;;;1.47;;
11439;SDS011;5776;51.814;4.510;2023-04-03T07:27:57;4.17;;;1.47;;
11439;SDS011;5776;51.814;4.510;2023-04-03T07:30:23;3.67;;;1.57;;
11439;SDS011;5776;51.814;4.510;2023-04-03T07:32:49;2.63;;;1.37;;
11439;SDS011;5776;51.814;4.510;2023-04-03T07:35:15;3.50;;;1.33;;
11439;SDS011;5776;51.814;4.510;2023-04-03T07:37:41;3.70;;;1.47;;
11439;SDS011;5776;51.814;4.510;2023-04-03T07:40:07;2.70;;;1.73;;
11439;SDS011;5776;51.814;4.510;2023-04-03T07:42:33;2.97;;;1.70;;
11439;SDS011;5776;51.814;4.510;2023-04-03T07:45:01;1.93;;;1.20;;
11439;SDS011;5776;51.814;4.510;2023-04-03T07:47:27;4.03;;;1.50;;
11439;SDS011;5776;51.814;4.510;2023-04-03T07:49:53;4.20;;;1.37;;
11439;SDS011;5776;51.814;4.510;2023-04-03T07:52:18;2.33;;;1.47;;
11439;SDS011;5776;51.814;4.510;2023-04-03T07:54:45;3.90;;;1.80;;
11439;SDS011;5776;51.814;4.510;2023-04-03T07:57:11;5.13;;;1.40;;
11439;SDS011;5776;51.814;4.510;2023-04-03T07:59:36;3.70;;;1.60;;
11439;SDS011;5776;51.814;4.510;2023-04-03T08:02:02;5.67;;;1.60;;
11439;SDS011;5776;51.814;4.510;2023-04-03T08:04:42;5.67;;;2.27;;
11439;SDS011;5776;51.814;4.510;2023-04-03T08:07:08;6.17;;;2.30;;
11439;SDS011;5776;51.814;4.510;2023-04-03T08:09:33;7.27;;;2.13;;
11439;SDS011;5776;51.814;4.510;2023-04-03T08:12:00;15.13;;;2.73;;
11439;SDS011;5776;51.814;4.510;2023-04-03T08:14:26;9.53;;;2.37;;
11439;SDS011;5776;51.814;4.510;2023-04-03T08:16:52;5.37;;;1.70;;
11439;SDS011;5776;51.814;4.510;2023-04-03T08:19:18;5.13;;;2.17;;
11439;SDS011;5776;51.814;4.510;2023-04-03T08:21:44;4.60;;;1.60;;
11439;SDS011;5776;51.814;4.510;2023-04-03T08:24:11;3.93;;;1.93;;
11439;SDS011;5776;51.814;4.510;2023-04-03T08:26:37;3.60;;;1.43;;
11439;SDS011;5776;51.814;4.510;2023-04-03T08:29:03;5.67;;;2.37;;
11439;SDS011;5776;51.814;4.510;2023-04-03T08:31:29;3.93;;;1.67;;
11439;SDS011;5776;51.814;4.510;2023-04-03T08:33:56;2.23;;;1.20;;
11439;SDS011;5776;51.814;4.510;2023-04-03T08:36:24;7.10;;;1.50;;
11439;SDS011;5776;51.814;4.510;2023-04-03T08:38:52;4.27;;;1.40;;
11439;SDS011;5776;51.814;4.510;2023-04-03T08:43:58;7.70;;;1.60;;
11439;SDS011;5776;51.814;4.510;2023-04-03T08:49:27;7.70;;;1.77;;
11439;SDS011;5776;51.814;4.510;2023-04-03T08:51:59;5.33;;;1.13;;
11439;SDS011;5776;51.814;4.510;2023-04-03T08:54:30;3.13;;;1.20;;
11439;SDS011;5776;51.814;4.510;2023-04-03T08:57:03;2.60;;;0.60;;
11439;SDS011;5776;51.814;4.510;2023-04-03T08:59:35;3.53;;;1.53;;
11439;SDS011;5776;51.814;4.510;2023-04-03T09:02:12;10.43;;;2.40;;
11439;SDS011;5776;51.814;4.510;2023-04-03T09:04:48;38.13;;;3.63;;
11439;SDS011;5776;51.814;4.510;2023-04-03T09:07:16;13.43;;;3.47;;
11439;SDS011;5776;51.814;4.510;2023-04-03T09:09:57;6.70;;;2.80;;
11439;SDS011;5776;51.814;4.510;2023-04-03T09:12:32;8.80;;;2.47;;
11439;SDS011;5776;51.814;4.510;2023-04-03T09:20:17;9.17;;;2.17;;
11439;SDS011;5776;51.814;4.510;2023-04-03T09:22:51;10.70;;;1.97;;
11439;SDS011;5776;51.814;4.510;2023-04-03T09:25:23;3.70;;;1.57;;
11439;SDS011;5776;51.814;4.510;2023-04-03T09:27:53;9.80;;;1.80;;
11439;SDS011;5776;51.814;4.510;2023-04-03T09:30:22;6.50;;;1.33;;
11439;SDS011;5776;51.814;4.510;2023-04-03T09:32:51;5.67;;;1.30;;
11439;SDS011;5776;51.814;4.510;2023-04-03T09:37:46;5.33;;;1.43;;
11439;SDS011;5776;51.814;4.510;2023-04-03T09:42:52;5.27;;;1.50;;
11439;SDS011;5776;51.814;4.510;2023-04-03T09:45:27;2.73;;;1.20;;
11439;SDS011;5776;51.814;4.510;2023-04-03T09:50:52;1.50;;;0.80;;
11439;SDS011;5776;51.814;4.510;2023-04-03T09:53:38;2.10;;;0.73;;
11439;SDS011;5776;51.814;4.510;2023-04-03T09:58:44;1.30;;;0.90;;
11439;SDS011;5776;51.814;4.510;2023-04-03T10:01:22;3.93;;;1.30;;
11439;SDS011;5776;51.814;4.510;2023-04-03T10:04:10;5.43;;;1.43;;
11439;SDS011;5776;51.814;4.510;2023-04-03T10:06:42;1.23;;;0.70;;
11439;SDS011;5776;51.814;4.510;2023-04-03T10:12:09;3.53;;;1.03;;
11439;SDS011;5776;51.814;4.510;2023-04-03T10:14:53;2.27;;;1.07;;
11439;SDS011;5776;51.814;4.510;2023-04-03T10:17:25;2.87;;;0.57;;
11439;SDS011;5776;51.814;4.510;2023-04-03T10:20:07;2.93;;;1.00;;
11439;SDS011;5776;51.814;4.510;2023-04-03T10:25:22;3.70;;;0.80;;
11439;SDS011;5776;51.814;4.510;2023-04-03T10:28:30;1.33;;;0.60;;
11439;SDS011;5776;51.814;4.510;2023-04-03T10:33:44;3.43;;;0.50;;
11439;SDS011;5776;51.814;4.510;2023-04-03T10:56:27;2.20;;;0.80;;
11439;SDS011;5776;51.814;4.510;2023-04-03T11:04:36;0.63;;;0.40;;
11439;SDS011;5776;51.814;4.510;2023-04-03T11:07:28;0.60;;;0.40;;
11439;SDS011;5776;51.814;4.510;2023-04-03T11:09:57;0.60;;;0.50;;
11439;SDS011;5776;51.814;4.510;2023-04-03T11:12:40;1.77;;;0.50;;
11439;SDS011;5776;51.814;4.510;2023-04-03T11:15:13;0.27;;;0.27;;
11439;SDS011;5776;51.814;4.510;2023-04-03T11:17:44;0.70;;;0.33;;
11439;SDS011;5776;51.814;4.510;2023-04-03T11:20:19;2.30;;;0.40;;
11439;SDS011;5776;51.814;4.510;2023-04-03T11:25:29;1.30;;;0.50;;
11439;SDS011;5776;51.814;4.510;2023-04-03T11:28:11;1.00;;;0.60;;
11439;SDS011;5776;51.814;4.510;2023-04-03T11:36:08;2.00;;;0.67;;
11439;SDS011;5776;51.814;4.510;2023-04-03T11:38:38;1.20;;;0.60;;
11439;SDS011;5776;51.814;4.510;2023-04-03T11:41:09;1.23;;;0.67;;
11439;SDS011;5776;51.814;4.510;2023-04-03T11:43:40;1.53;;;0.60;;
11439;SDS011;5776;51.814;4.510;2023-04-03T11:46:20;1.60;;;0.60;;
11439;SDS011;5776;51.814;4.510;2023-04-03T11:48:47;0.63;;;0.43;;
11439;SDS011;5776;51.814;4.510;2023-04-03T11:53:43;1.40;;;0.50;;
11439;SDS011;5776;51.814;4.510;2023-04-03T12:01:55;2.80;;;0.97;;
11439;SDS011;5776;51.814;4.510;2023-04-03T12:04:24;2.73;;;0.90;;
11439;SDS011;5776;51.814;4.510;2023-04-03T12:07:25;3.63;;;0.70;;
11439;SDS011;5776;51.814;4.510;2023-04-03T12:14:47;0.50;;;0.40;;
11439;SDS011;5776;51.814;4.510;2023-04-03T12:17:20;1.70;;;0.40;;
11439;SDS011;5776;51.814;4.510;2023-04-03T12:19:52;0.60;;;0.40;;
11439;SDS011;5776;51.814;4.510;2023-04-03T12:22:19;0.97;;;0.40;;
11439;SDS011;5776;51.814;4.510;2023-04-03T12:24:50;2.37;;;0.50;;
11439;SDS011;5776;51.814;4.510;2023-04-03T12:27:34;0.60;;;0.40;;
11439;SDS011;5776;51.814;4.510;2023-04-03T12:30:15;1.10;;;0.70;;
11439;SDS011;5776;51.814;4.510;2023-04-03T12:54:00;0.40;;;0.27;;
11439;SDS011;5776;51.814;4.510;2023-04-03T12:56:30;1.10;;;0.50;;
11439;SDS011;5776;51.814;4.510;2023-04-03T13:01:38;1.83;;;0.80;;
11439;SDS011;5776;51.814;4.510;2023-04-03T13:04:05;1.33;;;0.50;;
11439;SDS011;5776;51.814;4.510;2023-04-03T13:06:32;0.60;;;0.40;;
11439;SDS011;5776;51.814;4.510;2023-04-03T13:09:03;1.40;;;0.70;;
11439;SDS011;5776;51.814;4.510;2023-04-03T13:11:48;1.77;;;0.80;;
11439;SDS011;5776;51.814;4.510;2023-04-03T13:14:24;0.70;;;0.50;;
11439;SDS011;5776;51.814;4.510;2023-04-03T13:19:26;2.20;;;0.90;;
11439;SDS011;5776;51.814;4.510;2023-04-03T13:22:01;1.60;;;0.60;;
11439;SDS011;5776;51.814;4.510;2023-04-03T13:24:30;0.77;;;0.50;;
11439;SDS011;5776;51.814;4.510;2023-04-03T13:27:00;1.20;;;0.77;;
11439;SDS011;5776;51.814;4.510;2023-04-03T13:29:28;0.73;;;0.50;;
11439;SDS011;5776;51.814;4.510;2023-04-03T13:31:57;1.73;;;0.70;;
11439;SDS011;5776;51.814;4.510;2023-04-03T13:34:25;1.03;;;0.40;;
11439;SDS011;5776;51.814;4.510;2023-04-03T13:39:29;2.47;;;0.63;;
11439;SDS011;5776;51.814;4.510;2023-04-03T13:41:58;1.70;;;0.50;;
11439;SDS011;5776;51.814;4.510;2023-04-03T13:44:28;2.57;;;0.90;;
11439;SDS011;5776;51.814;4.510;2023-04-03T13:49:38;4.90;;;0.97;;
11439;SDS011;5776;51.814;4.510;2023-04-03T13:54:57;3.13;;;0.50;;
11439;SDS011;5776;51.814;4.510;2023-04-03T13:57:29;1.33;;;0.67;;
11439;SDS011;5776;51.814;4.510;2023-04-03T13:59:54;2.37;;;1.27;;
11439;SDS011;5776;51.814;4.510;2023-04-03T14:02:22;0.87;;;0.70;;
11439;SDS011;5776;51.814;4.510;2023-04-03T14:04:57;0.70;;;0.50;;
11439;SDS011;5776;51.814;4.510;2023-04-03T14:07:26;1.73;;;0.60;;
11439;SDS011;5776;51.814;4.510;2023-04-03T14:09:54;1.20;;;0.53;;
11439;SDS011;5776;51.814;4.510;2023-04-03T14:14:52;3.47;;;0.83;;
11439;SDS011;5776;51.814;4.510;2023-04-03T14:17:20;1.07;;;0.53;;
11439;SDS011;5776;51.814;4.510;2023-04-03T14:19:48;5.50;;;0.90;;
11439;SDS011;5776;51.814;4.510;2023-04-03T14:22:16;2.20;;;0.67;;
11439;SDS011;5776;51.814;4.510;2023-04-03T14:24:48;0.40;;;0.40;;
11439;SDS011;5776;51.814;4.510;2023-04-03T14:27:16;1.10;;;0.40;;
11439;SDS011;5776;51.814;4.510;2023-04-03T14:29:47;1.07;;;0.80;;
11439;SDS011;5776;51.814;4.510;2023-04-03T14:32:14;0.80;;;0.40;;
11439;SDS011;5776;51.814;4.510;2023-04-03T14:34:42;1.33;;;0.77;;
11439;SDS011;5776;51.814;4.510;2023-04-03T14:37:09;2.77;;;0.90;;
11439;SDS011;5776;51.814;4.510;2023-04-03T14:39:37;2.00;;;0.83;;
11439;SDS011;5776;51.814;4.510;2023-04-03T14:42:02;1.97;;;0.70;;
11439;SDS011;5776;51.814;4.510;2023-04-03T14:44:28;5.07;;;1.17;;
11439;SDS011;5776;51.814;4.510;2023-04-03T14:46:55;1.53;;;0.50;;
11439;SDS011;5776;51.814;4.510;2023-04-03T14:49:24;0.70;;;0.50;;
11439;SDS011;5776;51.814;4.510;2023-04-03T14:51:52;0.63;;;0.40;;
11439;SDS011;5776;51.814;4.510;2023-04-03T14:54:19;0.30;;;0.30;;
11439;SDS011;5776;51.814;4.510;2023-04-03T14:56:51;0.43;;;0.37;;
11439;SDS011;5776;51.814;4.510;2023-04-03T14:59:17;1.23;;;0.60;;
11439;SDS011;5776;51.814;4.510;2023-04-03T15:01:45;2.47;;;0.73;;
11439;SDS011;5776;51.814;4.510;2023-04-03T15:04:12;1.20;;;0.70;;
11439;SDS011;5776;51.814;4.510;2023-04-03T15:06:39;1.20;;;0.70;;
11439;SDS011;5776;51.814;4.510;2023-04-03T15:09:08;1.23;;;0.63;;
11439;SDS011;5776;51.814;4.510;2023-04-03T15:11:56;1.20;;;0.70;;
11439;SDS011;5776;51.814;4.510;2023-04-03T15:14:22;0.80;;;0.70;;
11439;SDS011;5776;51.814;4.510;2023-04-03T15:16:48;2.50;;;0.97;;
11439;SDS011;5776;51.814;4.510;2023-04-03T15:19:14;1.07;;;0.50;;
11439;SDS011;5776;51.814;4.510;2023-04-03T15:21:40;1.43;;;0.70;;
11439;SDS011;5776;51.814;4.510;2023-04-03T15:24:06;0.40;;;0.40;;
11439;SDS011;5776;51.814;4.510;2023-04-03T15:26:34;1.23;;;0.40;;
11439;SDS011;5776;51.814;4.510;2023-04-03T15:29:00;3.87;;;0.73;;
11439;SDS011;5776;51.814;4.510;2023-04-03T15:31:26;2.90;;;1.10;;
11439;SDS011;5776;51.814;4.510;2023-04-03T15:33:52;1.70;;;0.83;;
11439;SDS011;5776;51.814;4.510;2023-04-03T15:36:18;0.53;;;0.43;;
11439;SDS011;5776;51.814;4.510;2023-04-03T15:38:43;2.00;;;0.80;;
11439;SDS011;5776;51.814;4.510;2023-04-03T15:41:09;1.53;;;0.87;;
11439;SDS011;5776;51.814;4.510;2023-04-03T15:43:35;1.13;;;0.60;;
11439;SDS011;5776;51.814;4.510;2023-04-03T15:46:01;2.40;;;1.03;;
11439;SDS011;5776;51.814;4.510;2023-04-03T15:48:27;0.77;;;0.40;;
11439;SDS011;5776;51.814;4.510;2023-04-03T15:50:54;9.80;;;0.63;;
11439;SDS011;5776;51.814;4.510;2023-04-03T15:53:20;2.00;;;0.90;;
11439;SDS011;5776;51.814;4.510;2023-04-03T15:55:46;3.77;;;0.80;;
11439;SDS011;5776;51.814;4.510;2023-04-03T15:58:12;4.87;;;0.90;;
11439;SDS011;5776;51.814;4.510;2023-04-03T16:00:38;4.30;;;0.70;;
11439;SDS011;5776;51.814;4.510;2023-04-03T16:03:08;2.87;;;0.83;;
11439;SDS011;5776;51.814;4.510;2023-04-03T16:05:37;5.30;;;0.70;;
11439;SDS011;5776;51.814;4.510;2023-04-03T16:08:04;8.10;;;1.30;;
11439;SDS011;5776;51.814;4.510;2023-04-03T16:10:32;2.43;;;1.03;;
11439;SDS011;5776;51.814;4.510;2023-04-03T16:12:57;2.57;;;0.80;;
11439;SDS011;5776;51.814;4.510;2023-04-03T16:15:24;2.03;;;0.83;;
11439;SDS011;5776;51.814;4.510;2023-04-03T16:17:52;5.17;;;0.80;;
11439;SDS011;5776;51.814;4.510;2023-04-03T16:20:19;2.87;;;1.00;;
11439;SDS011;5776;51.814;4.510;2023-04-03T16:22:47;1.60;;;0.90;;
11439;SDS011;5776;51.814;4.510;2023-04-03T16:25:14;2.67;;;0.80;;
11439;SDS011;5776;51.814;4.510;2023-04-03T16:27:40;2.97;;;1.10;;
11439;SDS011;5776;51.814;4.510;2023-04-03T16:30:07;1.07;;;0.67;;
11439;SDS011;5776;51.814;4.510;2023-04-03T16:32:34;3.27;;;0.87;;
11439;SDS011;5776;51.814;4.510;2023-04-03T16:35:02;1.73;;;0.90;;
11439;SDS011;5776;51.814;4.510;2023-04-03T16:37:28;1.93;;;0.60;;
11439;SDS011;5776;51.814;4.510;2023-04-03T16:39:54;1.83;;;0.70;;
11439;SDS011;5776;51.814;4.510;2023-04-03T16:42:20;3.13;;;0.73;;
11439;SDS011;5776;51.814;4.510;2023-04-03T16:44:46;0.70;;;0.50;;
11439;SDS011;5776;51.814;4.510;2023-04-03T16:47:12;0.73;;;0.50;;
11439;SDS011;5776;51.814;4.510;2023-04-03T16:49:40;4.27;;;0.83;;
11439;SDS011;5776;51.814;4.510;2023-04-03T16:52:06;4.20;;;1.00;;
11439;SDS011;5776;51.814;4.510;2023-04-03T16:54:32;4.50;;;0.70;;
11439;SDS011;5776;51.814;4.510;2023-04-03T16:56:58;1.70;;;0.90;;
11439;SDS011;5776;51.814;4.510;2023-04-03T16:59:24;2.60;;;0.80;;
11439;SDS011;5776;51.814;4.510;2023-04-03T17:01:50;1.80;;;0.90;;
11439;SDS011;5776;51.814;4.510;2023-04-03T17:04:17;3.73;;;1.10;;
11439;SDS011;5776;51.814;4.510;2023-04-03T17:06:43;2.53;;;1.53;;